createdAt,value
2022-09-09T00:01:26.358Z,71.50
2022-09-09T00:04:30.468Z,71.26
2022-09-09T00:07:42.382Z,71.76
2022-09-09T00:10:45.218Z,71.97
2022-09-09T00:13:52.644Z,71.90
2022-09-09T00:16:58.250Z,72.24
2022-09-09T00:20:05.061Z,71.95
2022-09-09T00:23:14.965Z,71.72
2022-09-09T00:26:22.543Z,70.45
2022-09-09T00:29:30.939Z,69.50
2022-09-09T00:32:36.635Z,69.19
2022-09-09T00:35:40.710Z,68.13
2022-09-09T00:38:46.172Z,67.95
2022-09-09T00:41:57.655Z,67.58
2022-09-09T00:45:13.077Z,67.32
2022-09-09T00:48:17.135Z,66.82
2022-09-09T00:51:25.708Z,66.53
2022-09-09T00:54:40.346Z,66.27
2022-09-09T00:57:43.419Z,65.54
2022-09-09T01:00:50.082Z,65.38
2022-09-09T01:03:55.489Z,65.72
2022-09-09T01:07:03.428Z,65.58
2022-09-09T01:10:09.364Z,65.28
2022-09-09T01:13:16.849Z,65.74
2022-09-09T01:16:21.065Z,65.75
2022-09-09T01:19:33.896Z,65.87
2022-09-09T01:22:39.091Z,65.96
2022-09-09T01:26:16.871Z,66.27
2022-09-09T01:29:20.957Z,66.44
2022-09-09T01:32:42.210Z,66.62
2022-09-09T01:35:49.223Z,66.67
2022-09-09T01:38:51.930Z,66.53
2022-09-09T01:41:57.066Z,66.74
2022-09-09T01:44:59.751Z,67.13
2022-09-09T01:48:03.986Z,67.15
2022-09-09T01:51:06.917Z,67.61
2022-09-09T01:54:10.026Z,67.38
2022-09-09T01:57:18.286Z,68.03
2022-09-09T02:00:21.094Z,68.43
2022-09-09T02:03:27.742Z,68.93
2022-09-09T02:06:33.222Z,69.48
2022-09-09T02:09:36.837Z,71.27
2022-09-09T02:12:42.730Z,70.65
2022-09-09T02:15:49.717Z,70.49
2022-09-09T02:18:55.030Z,71.04
2022-09-09T02:21:58.651Z,71.00
2022-09-09T02:25:02.379Z,69.00
2022-09-09T02:28:08.681Z,65.57
2022-09-09T02:31:11.517Z,64.80
2022-09-09T02:34:15.458Z,65.37
2022-09-09T02:37:20.911Z,64.07
2022-09-09T02:40:23.540Z,63.12
2022-09-09T02:43:28.074Z,63.15
2022-09-09T02:46:39.457Z,63.27
2022-09-09T02:49:46.287Z,63.01
2022-09-09T02:53:11.056Z,63.02
2022-09-09T02:56:17.313Z,63.19
2022-09-09T02:59:21.552Z,64.32
2022-09-09T03:02:26.285Z,64.73
2022-09-09T03:05:28.955Z,63.70
2022-09-09T03:08:31.798Z,63.40
2022-09-09T03:11:34.422Z,62.96
2022-09-09T03:14:39.131Z,64.06
2022-09-09T03:17:42.001Z,64.68
2022-09-09T03:20:44.640Z,64.17
2022-09-09T03:23:47.241Z,63.92
2022-09-09T03:26:51.482Z,64.72
2022-09-09T03:29:55.396Z,65.07
2022-09-09T03:32:58.640Z,64.40
2022-09-09T03:36:01.251Z,64.35
2022-09-09T03:39:04.877Z,62.97
2022-09-09T03:42:07.806Z,62.73
2022-09-09T03:45:12.496Z,61.83
2022-09-09T03:48:15.055Z,60.08
2022-09-09T03:51:17.852Z,59.07
2022-09-09T03:54:20.709Z,59.30
2022-09-09T03:57:23.290Z,59.08
2022-09-09T04:00:27.588Z,59.92
2022-09-09T04:03:31.018Z,59.58
2022-09-09T04:06:33.402Z,60.23
2022-09-09T04:09:36.551Z,59.77
2022-09-09T04:12:38.999Z,58.95
2022-09-09T04:15:43.166Z,59.46
2022-09-09T04:18:45.797Z,60.05
2022-09-09T04:21:51.484Z,60.55
2022-09-09T04:24:53.964Z,60.29
2022-09-09T04:27:57.203Z,60.14
2022-09-09T04:31:06.481Z,60.18
2022-09-09T04:34:09.059Z,61.00
2022-09-09T04:37:11.695Z,60.40
2022-09-09T04:40:14.336Z,60.72
2022-09-09T04:43:17.411Z,61.71
2022-09-09T04:46:21.517Z,63.51
2022-09-09T04:49:24.202Z,65.57
2022-09-09T04:52:26.787Z,67.21
2022-09-09T04:55:29.712Z,68.66
2022-09-09T04:58:33.135Z,69.60
2022-09-09T05:01:36.969Z,70.36
2022-09-09T05:04:39.876Z,71.01
2022-09-09T05:07:42.664Z,71.16
2022-09-09T05:10:45.332Z,71.27
2022-09-09T05:13:48.437Z,71.73
2022-09-09T05:16:52.377Z,70.86
2022-09-09T05:19:55.035Z,69.07
2022-09-09T05:22:58.373Z,68.88
2022-09-09T05:26:00.982Z,68.38
2022-09-09T05:29:03.498Z,67.79
2022-09-09T05:32:07.458Z,66.95
2022-09-09T05:35:10.981Z,66.32
2022-09-09T05:38:13.492Z,66.35
2022-09-09T05:41:17.357Z,66.22
2022-09-09T05:44:20.266Z,65.19
2022-09-09T05:47:24.279Z,65.42
2022-09-09T05:50:31.428Z,64.69
2022-09-09T05:53:35.151Z,64.16
2022-09-09T05:56:37.639Z,64.42
2022-09-09T05:59:40.264Z,64.01
2022-09-09T06:02:44.717Z,63.64
2022-09-09T06:05:47.429Z,63.30
2022-09-09T06:08:52.388Z,62.46
2022-09-09T06:11:56.016Z,62.70
2022-09-09T06:14:58.508Z,62.04
2022-09-09T06:18:02.523Z,61.91
2022-09-09T06:21:07.699Z,60.16
2022-09-09T06:24:11.184Z,58.97
2022-09-09T06:27:14.519Z,57.82
2022-09-09T06:30:18.288Z,58.52
2022-09-09T06:33:22.143Z,58.14
2022-09-09T06:36:26.316Z,57.97
2022-09-09T06:39:29.045Z,57.03
2022-09-09T06:42:32.482Z,56.58
2022-09-09T06:45:37.633Z,56.06
2022-09-09T06:48:42.651Z,55.17
2022-09-09T06:51:45.117Z,54.92
2022-09-09T06:54:47.667Z,54.25
2022-09-09T06:57:51.166Z,54.29
2022-09-09T07:00:53.940Z,54.17
2022-09-09T07:03:59.823Z,54.35
2022-09-09T07:07:02.422Z,53.85
2022-09-09T07:10:06.240Z,54.08
2022-09-09T07:13:08.868Z,54.04
2022-09-09T07:16:13.550Z,53.06
2022-09-09T07:19:17.518Z,54.19
2022-09-09T07:22:21.259Z,54.24
2022-09-09T07:25:23.948Z,54.84
2022-09-09T07:28:27.221Z,54.23
2022-09-09T07:31:31.491Z,54.29
2022-09-09T07:34:35.455Z,54.73
2022-09-09T07:37:38.525Z,54.32
2022-09-09T07:40:41.027Z,52.86
2022-09-09T07:43:45.120Z,51.78
2022-09-09T07:46:48.522Z,50.20
2022-09-09T07:49:52.563Z,49.76
2022-09-09T07:52:55.374Z,51.65
2022-09-09T07:56:04.955Z,53.71
2022-09-09T07:59:07.983Z,54.22
2022-09-09T08:02:11.957Z,53.91
2022-09-09T08:05:15.990Z,52.44
2022-09-09T08:08:18.602Z,51.86
2022-09-09T08:11:21.383Z,51.58
2022-09-09T08:14:24.549Z,51.19
2022-09-09T08:17:26.913Z,50.75
2022-09-09T08:20:30.910Z,51.38
2022-09-09T08:23:33.817Z,50.70
2022-09-09T08:26:38.682Z,50.56
2022-09-09T08:29:41.290Z,51.05
2022-09-09T08:32:45.942Z,50.39
2022-09-09T08:35:53.933Z,49.78
2022-09-09T08:38:58.511Z,48.96
2022-09-09T08:42:12.769Z,48.71
2022-09-09T08:45:27.995Z,47.72
2022-09-09T08:48:42.807Z,47.37
2022-09-09T08:51:46.833Z,48.01
2022-09-09T08:54:52.606Z,47.46
2022-09-09T08:57:57.185Z,47.07
2022-09-09T09:01:12.192Z,46.80
2022-09-09T09:04:29.939Z,46.77
2022-09-09T09:07:44.507Z,44.25
2022-09-09T09:10:49.694Z,43.54
2022-09-09T09:13:56.585Z,42.75
2022-09-09T09:17:00.967Z,42.55
2022-09-09T09:20:05.736Z,42.29
2022-09-09T09:23:16.766Z,42.37
2022-09-09T09:26:20.033Z,44.77
2022-09-09T09:29:23.480Z,49.90
2022-09-09T09:32:27.276Z,53.24
2022-09-09T09:35:30.262Z,55.56
2022-09-09T09:41:58.598Z,64.95
2022-09-09T09:45:11.232Z,64.32
2022-09-09T09:48:14.937Z,60.56
2022-09-09T09:51:25.497Z,59.74
2022-09-09T09:54:31.042Z,57.47
2022-09-09T09:57:34.336Z,58.11
2022-09-09T10:00:37.156Z,54.76
2022-09-09T10:03:41.417Z,54.03
2022-09-09T10:06:44.058Z,51.21
2022-09-09T10:09:49.991Z,50.63
2022-09-09T10:13:01.015Z,52.27
2022-09-09T10:16:11.925Z,50.61
2022-09-09T10:19:16.169Z,50.17
2022-09-09T10:22:28.379Z,51.02
2022-09-09T10:25:45.230Z,50.28
2022-09-09T10:29:09.312Z,50.06
2022-09-09T10:32:26.662Z,48.87
2022-09-09T10:35:34.591Z,48.74
2022-09-09T10:38:42.098Z,46.46
2022-09-09T10:41:50.337Z,44.33
2022-09-09T10:45:03.202Z,43.71
2022-09-09T10:48:18.049Z,44.37
2022-09-09T10:51:26.463Z,41.98
2022-09-09T10:54:37.643Z,41.69
2022-09-09T10:57:44.052Z,40.35
2022-09-09T11:00:49.022Z,41.00
2022-09-09T11:03:56.556Z,40.96
2022-09-09T11:06:59.524Z,39.28
2022-09-09T11:10:07.068Z,37.51
2022-09-09T11:13:19.431Z,38.77
2022-09-09T11:16:27.070Z,38.77
2022-09-09T11:19:35.148Z,38.76
2022-09-09T11:22:41.768Z,37.52
2022-09-09T11:25:48.417Z,39.11
2022-09-09T11:29:14.627Z,39.13
2022-09-09T11:32:31.414Z,38.26
2022-09-09T11:35:42.439Z,39.46
2022-09-09T11:38:47.751Z,40.48
2022-09-09T11:41:50.474Z,41.43
2022-09-09T11:44:56.076Z,41.61
2022-09-09T11:47:59.818Z,40.29
2022-09-09T11:51:06.197Z,40.77
2022-09-09T11:54:30.470Z,39.94
2022-09-09T11:57:34.849Z,39.46
2022-09-09T12:00:41.268Z,39.66
2022-09-09T12:03:47.093Z,39.79
2022-09-09T12:06:53.125Z,37.90
2022-09-09T12:10:00.554Z,36.48
2022-09-09T12:13:11.345Z,36.07
2022-09-09T12:16:35.423Z,36.07
2022-09-09T12:19:38.338Z,38.89
2022-09-09T12:22:48.087Z,39.40
2022-09-09T12:25:58.481Z,38.94
2022-09-09T12:29:07.978Z,37.31
2022-09-09T12:32:15.105Z,37.32
2022-09-09T12:35:22.694Z,38.62
2022-09-09T12:38:29.742Z,36.92
2022-09-09T12:41:32.294Z,36.10
2022-09-09T12:44:34.838Z,33.78
2022-09-09T12:47:42.583Z,33.30
2022-09-09T12:50:47.187Z,33.67
2022-09-09T12:53:51.245Z,32.90
2022-09-09T12:56:53.944Z,33.85
2022-09-09T13:00:07.542Z,29.22
2022-09-09T13:03:19.471Z,31.31
2022-09-09T13:06:28.638Z,28.90
2022-09-09T13:09:31.785Z,28.09
2022-09-09T13:12:34.813Z,32.84
2022-09-09T13:15:37.306Z,32.81
2022-09-09T13:18:43.116Z,30.72
2022-09-09T13:21:45.761Z,30.06
2022-09-09T13:24:48.500Z,29.24
2022-09-09T13:27:57.588Z,30.56
2022-09-09T13:31:04.498Z,26.67
2022-09-09T13:34:15.195Z,30.77
2022-09-09T13:37:24.598Z,25.43
2022-09-09T13:40:27.219Z,19.22
2022-09-09T13:43:30.805Z,19.02
2022-09-09T13:46:36.387Z,27.14
2022-09-09T13:49:40.333Z,31.01
2022-09-09T13:52:42.825Z,28.80
2022-09-09T13:55:48.280Z,30.49
2022-09-09T13:58:53.022Z,32.04
2022-09-09T14:01:55.555Z,28.38
2022-09-09T14:04:59.418Z,22.46
2022-09-09T14:08:02.437Z,19.80
2022-09-09T14:11:05.403Z,25.15
2022-09-09T14:14:07.944Z,25.50
2022-09-09T14:17:11.054Z,22.60
2022-09-09T14:20:16.320Z,20.80
2022-09-09T14:23:19.793Z,24.17
2022-09-09T14:26:22.429Z,21.72
2022-09-09T14:29:26.332Z,26.68
2022-09-09T14:32:30.165Z,29.12
2022-09-09T14:35:34.951Z,29.70
2022-09-09T14:38:40.379Z,26.01
2022-09-09T14:41:42.843Z,28.03
2022-09-09T14:44:45.383Z,30.46
2022-09-09T14:47:47.984Z,30.88
2022-09-09T14:50:51.798Z,29.99
2022-09-09T14:53:55.115Z,28.46
2022-09-09T14:56:58.552Z,21.80
2022-09-09T15:00:01.885Z,20.09
2022-09-09T15:03:05.035Z,24.11
2022-09-09T15:06:10.819Z,20.50
2022-09-09T15:09:13.558Z,16.10
2022-09-09T15:12:16.628Z,16.14
2022-09-09T15:15:19.190Z,19.33
2022-09-09T15:18:21.913Z,26.64
2022-09-09T15:21:26.493Z,30.00
2022-09-09T15:24:29.036Z,31.65
2022-09-09T15:27:32.336Z,32.30
2022-09-09T15:30:34.957Z,32.18
2022-09-09T15:33:38.430Z,31.67
2022-09-09T15:36:44.047Z,30.31
2022-09-09T15:39:46.652Z,29.76
2022-09-09T15:42:49.858Z,31.08
2022-09-09T15:45:56.977Z,33.06
2022-09-09T15:49:01.070Z,34.72
2022-09-09T15:52:05.105Z,35.15
2022-09-09T15:55:09.154Z,35.58
2022-09-09T15:58:13.254Z,36.12
2022-09-09T16:01:17.698Z,35.92
2022-09-09T16:04:24.273Z,36.04
2022-09-09T16:07:28.210Z,35.77
2022-09-09T16:10:31.845Z,36.06
2022-09-09T16:13:35.791Z,36.27
2022-09-09T16:16:38.339Z,36.57
2022-09-09T16:19:40.949Z,36.31
2022-09-09T16:22:44.851Z,36.76
2022-09-09T16:25:55.395Z,36.79
2022-09-09T16:28:58.470Z,37.11
2022-09-09T16:32:03.932Z,37.75
2022-09-09T16:35:07.937Z,38.27
2022-09-09T16:38:12.154Z,38.54
2022-09-09T16:41:16.197Z,39.56
2022-09-09T16:44:20.329Z,41.71
2022-09-09T16:47:25.482Z,41.95
2022-09-09T16:50:28.207Z,41.89
2022-09-09T16:53:32.099Z,41.52
2022-09-09T16:56:37.779Z,40.46
2022-09-09T16:59:40.366Z,41.11
2022-09-09T17:02:42.909Z,41.54
2022-09-09T17:05:45.568Z,42.23
2022-09-09T17:08:49.899Z,42.61
2022-09-09T17:11:53.326Z,43.13
2022-09-09T17:14:56.930Z,43.56
2022-09-09T17:17:59.914Z,44.27
2022-09-09T17:21:05.253Z,45.13
2022-09-09T17:24:09.466Z,45.79
2022-09-09T17:27:12.533Z,46.26
2022-09-09T17:30:16.027Z,47.12
2022-09-09T17:33:18.528Z,47.41
2022-09-09T17:36:23.041Z,48.43
2022-09-09T17:39:27.018Z,48.77
2022-09-09T17:42:29.526Z,49.07
2022-09-09T17:45:32.830Z,49.57
2022-09-09T17:48:36.080Z,49.66
2022-09-09T17:51:38.844Z,49.66
2022-09-09T17:54:42.943Z,49.52
2022-09-09T17:57:47.004Z,49.91
2022-09-09T18:00:50.666Z,50.03
2022-09-09T18:03:53.471Z,50.91
2022-09-09T18:06:56.423Z,51.13
2022-09-09T18:10:00.388Z,51.38
2022-09-09T18:13:03.053Z,51.18
2022-09-09T18:16:08.561Z,51.20
2022-09-09T18:19:13.810Z,50.95
2022-09-09T18:22:16.591Z,51.16
2022-09-09T18:25:20.463Z,51.11
2022-09-09T18:28:25.060Z,51.27
2022-09-09T18:31:29.125Z,51.70
2022-09-09T18:34:31.944Z,51.35
2022-09-09T18:37:36.052Z,51.20
2022-09-09T18:40:39.961Z,51.63
2022-09-09T18:43:43.286Z,51.67
2022-09-09T18:46:46.020Z,51.55
2022-09-09T18:49:50.673Z,51.56
2022-09-09T18:52:53.258Z,51.99
2022-09-09T18:56:01.488Z,51.61
2022-09-09T18:59:06.911Z,52.20
2022-09-09T19:02:12.088Z,52.25
2022-09-09T19:05:14.604Z,52.39
2022-09-09T19:08:17.241Z,53.13
2022-09-09T19:11:24.126Z,53.54
2022-09-09T19:14:26.986Z,53.84
2022-09-09T19:17:30.394Z,54.93
2022-09-09T19:20:32.977Z,55.30
2022-09-09T19:23:35.498Z,55.25
2022-09-09T19:26:43.869Z,55.52
2022-09-09T19:29:47.678Z,55.63
2022-09-09T19:32:53.510Z,55.51
2022-09-09T19:35:59.064Z,55.45
2022-09-09T19:39:03.290Z,55.29
2022-09-09T19:42:07.271Z,55.89
2022-09-09T19:45:10.658Z,56.09
2022-09-09T19:48:14.290Z,56.05
2022-09-09T19:51:18.529Z,57.03
2022-09-09T19:54:21.103Z,57.04
2022-09-09T19:57:28.585Z,57.10
2022-09-09T20:00:31.431Z,57.86
2022-09-09T20:03:34.184Z,57.76
2022-09-09T20:06:37.900Z,57.92
2022-09-09T20:09:40.370Z,58.06
2022-09-09T20:12:44.205Z,58.32
2022-09-09T20:15:47.049Z,57.80
2022-09-09T20:18:52.443Z,57.64
2022-09-09T20:21:55.591Z,57.93
2022-09-09T20:24:58.126Z,58.52
2022-09-09T20:28:02.000Z,58.37
2022-09-09T20:31:05.348Z,58.18
2022-09-09T20:34:09.290Z,58.39
2022-09-09T20:37:11.947Z,58.17
2022-09-09T20:40:15.439Z,57.89
2022-09-09T20:43:20.330Z,57.63
2022-09-09T20:46:24.953Z,57.31
2022-09-09T20:49:27.916Z,58.35
2022-09-09T20:52:30.450Z,58.11
2022-09-09T20:55:34.205Z,57.79
2022-09-09T20:58:38.150Z,58.39
2022-09-09T21:01:41.347Z,58.10
2022-09-09T21:04:44.735Z,57.75
2022-09-09T21:07:47.306Z,57.91
2022-09-09T21:10:51.264Z,58.87
2022-09-09T21:13:56.462Z,59.34
2022-09-09T21:16:58.984Z,59.80
2022-09-09T21:20:02.094Z,60.06
2022-09-09T21:23:04.759Z,60.08
2022-09-09T21:26:07.576Z,60.56
2022-09-09T21:29:12.981Z,60.85
2022-09-09T21:32:15.466Z,61.24
2022-09-09T21:35:18.987Z,60.71
2022-09-09T21:38:23.494Z,60.61
2022-09-09T21:41:26.156Z,60.89
2022-09-09T21:44:30.050Z,60.73
2022-09-09T21:47:32.623Z,61.01
2022-09-09T21:50:37.001Z,60.89
2022-09-09T21:53:39.573Z,61.05
2022-09-09T21:56:42.921Z,61.24
2022-09-09T21:59:46.581Z,61.39
2022-09-09T22:02:49.272Z,61.39
2022-09-09T22:05:53.956Z,61.24
2022-09-09T22:08:57.202Z,61.05
2022-09-09T22:11:59.700Z,60.93
2022-09-09T22:15:04.146Z,60.50
2022-09-09T22:18:06.766Z,60.20
2022-09-09T22:21:10.457Z,60.53
2022-09-09T22:24:13.048Z,60.39
2022-09-09T22:27:15.905Z,60.18
2022-09-09T22:30:20.413Z,60.31
2022-09-09T22:33:24.296Z,60.20
2022-09-09T22:36:27.363Z,59.84
2022-09-09T22:39:30.086Z,59.57
2022-09-09T22:42:32.553Z,59.43
2022-09-09T22:45:37.255Z,59.50
2022-09-09T22:48:40.289Z,60.17
2022-09-09T22:51:42.796Z,58.80
2022-09-09T22:54:46.462Z,59.32
2022-09-09T22:57:48.949Z,59.12
2022-09-09T23:00:53.013Z,59.21
2022-09-09T23:03:59.074Z,59.39
2022-09-09T23:07:02.289Z,59.35
2022-09-09T23:10:06.653Z,59.20
2022-09-09T23:13:09.492Z,59.53
2022-09-09T23:16:14.839Z,59.60
2022-09-09T23:19:17.763Z,64.48
2022-09-09T23:22:21.029Z,68.41
2022-09-09T23:25:23.804Z,71.48
2022-09-09T23:28:26.759Z,75.69
2022-09-09T23:31:33.844Z,77.29
2022-09-09T23:34:37.904Z,79.48
2022-09-09T23:37:40.381Z,82.64
2022-09-09T23:40:46.916Z,84.38
2022-09-09T23:43:49.556Z,84.72
2022-09-09T23:46:53.460Z,84.87
2022-09-09T23:49:56.001Z,84.19
2022-09-09T23:52:59.183Z,84.62
2022-09-09T23:56:01.753Z,84.28
2022-09-09T23:59:07.468Z,86.04
